logo
Rechercher aéroport 
image banner adimage banner adimage banner ad
image banner ad

FA0644 - Dezzi Raceway Airfield

Situé à , South Africa

ICAO - , IATA -

Données fournies par Airmate  

Information générale

Coordonnées: S30°46'16" E30°25'30"
Élévation : 190 feet MSL.
 
Voir autres Aéroports à Kwazulu-Natal

Données opérationnelles

Special qualification required
Heure actuelle UTC:
Heure actuelle locale:
Météo à : - ( 0 km )
METAR: ZMCK 171630Z 08003MPS 9999 FEW033 SCT100 19/09 Q1006 NOSIG RMK QFE640.1 52 NT
Voir NOTAMs / SUP AIP / TFR affectant cet aéroport [VIEW]
Fréquences de communication: [VIEW]

Pistes:

Coordonnées de l'aéroport

Adresse: South Africa

Vue satellite de FA0644